createdAt,value
2018-02-21T00:01:35.335Z,-0.20
2018-02-21T00:03:37.969Z,-0.20
2018-02-21T00:05:40.600Z,-0.20
2018-02-21T00:07:43.984Z,-0.20
2018-02-21T00:09:46.585Z,-0.20
2018-02-21T00:11:49.258Z,-0.30
2018-02-21T00:13:51.875Z,-0.40
2018-02-21T00:15:54.498Z,-0.30
2018-02-21T00:17:57.874Z,-0.40
2018-02-21T00:20:01.279Z,-0.40
2018-02-21T00:22:04.635Z,-0.50
2018-02-21T00:24:07.277Z,-0.50
2018-02-21T00:26:10.213Z,-0.50
2018-02-21T00:28:12.827Z,-0.50
2018-02-21T00:30:15.445Z,-0.50
2018-02-21T00:32:18.101Z,-0.60
2018-02-21T00:34:20.701Z,-0.50
2018-02-21T00:36:23.320Z,-0.60
2018-02-21T00:38:25.942Z,-0.60
2018-02-21T00:40:28.570Z,-0.60
2018-02-21T00:42:31.212Z,-0.50
2018-02-21T00:44:33.838Z,-0.50
2018-02-21T00:46:36.495Z,-0.50
2018-02-21T00:48:39.119Z,-0.50
2018-02-21T00:50:41.710Z,-0.50
2018-02-21T00:52:44.342Z,-0.60
2018-02-21T00:54:46.953Z,-0.60
2018-02-21T00:56:49.562Z,-0.60
2018-02-21T00:58:52.246Z,-0.60
2018-02-21T01:00:54.935Z,-0.50
2018-02-21T01:02:57.616Z,-0.50
2018-02-21T01:05:00.236Z,-0.50
2018-02-21T01:07:02.870Z,-0.60
2018-02-21T01:09:05.507Z,-0.60
2018-02-21T01:11:08.878Z,-0.60
2018-02-21T01:13:11.507Z,-0.60
2018-02-21T01:15:14.144Z,-0.50
2018-02-21T01:17:16.844Z,-0.50
2018-02-21T01:19:19.454Z,-0.50
2018-02-21T01:21:22.096Z,-0.50
2018-02-21T01:23:24.737Z,-0.50
2018-02-21T01:25:28.099Z,-0.50
2018-02-21T01:27:30.733Z,-0.50
2018-02-21T01:29:33.413Z,-0.50
2018-02-21T01:31:36.085Z,-0.40
2018-02-21T01:33:38.730Z,-0.50
2018-02-21T01:35:42.110Z,-0.50
2018-02-21T01:37:44.726Z,-0.50
2018-02-21T01:39:47.360Z,-0.50
2018-02-21T01:41:49.994Z,-0.40
2018-02-21T01:43:52.661Z,-0.40
2018-02-21T01:45:55.269Z,-0.50
2018-02-21T01:47:58.158Z,-0.50
2018-02-21T01:50:00.809Z,-0.60
2018-02-21T01:52:03.406Z,-0.70
2018-02-21T01:54:06.022Z,-0.70
2018-02-21T01:56:08.644Z,-0.60
2018-02-21T01:58:11.262Z,-0.60
2018-02-21T02:00:14.649Z,-0.50
2018-02-21T02:02:18.044Z,-0.60
2018-02-21T02:04:21.423Z,-0.60
2018-02-21T02:06:24.051Z,-0.60
2018-02-21T02:08:26.678Z,-0.60
2018-02-21T02:10:29.335Z,-0.60
2018-02-21T02:12:31.965Z,-0.60
2018-02-21T02:14:34.600Z,-0.60
2018-02-21T02:16:37.199Z,-0.50
2018-02-21T02:18:39.823Z,-0.50
2018-02-21T02:20:42.428Z,-0.40
2018-02-21T02:22:45.827Z,-0.50
2018-02-21T02:24:49.181Z,-0.40
2018-02-21T02:26:51.783Z,-0.40
2018-02-21T02:28:54.427Z,-0.40
2018-02-21T02:30:57.818Z,-0.40
2018-02-21T02:33:00.408Z,-0.40
2018-02-21T02:35:03.034Z,-0.50
2018-02-21T02:37:05.745Z,-0.50
2018-02-21T02:39:20.093Z,-0.50
2018-02-21T02:41:22.950Z,-0.60
2018-02-21T02:43:25.542Z,-0.60
2018-02-21T02:45:28.408Z,-0.60
2018-02-21T02:47:31.042Z,-0.60
2018-02-21T02:49:34.425Z,-0.50
2018-02-21T02:51:37.040Z,-0.50
2018-02-21T02:53:39.979Z,-0.50
2018-02-21T02:55:42.608Z,-0.50
2018-02-21T02:57:45.247Z,-0.50
2018-02-21T02:59:47.899Z,-0.50
2018-02-21T03:01:50.548Z,-0.60
2018-02-21T03:03:53.148Z,-0.60
2018-02-21T03:05:55.793Z,-0.60
2018-02-21T03:07:58.430Z,-0.60
2018-02-21T03:10:01.814Z,-0.60
2018-02-21T03:12:05.182Z,-0.70
2018-02-21T03:14:08.693Z,-0.70
2018-02-21T03:16:11.289Z,-0.70
2018-02-21T03:18:13.930Z,-0.70
2018-02-21T03:20:16.574Z,-0.80
2018-02-21T03:22:19.196Z,-0.70
2018-02-21T03:24:22.581Z,-0.60
2018-02-21T03:26:25.194Z,-0.60
2018-02-21T03:28:27.811Z,-0.70
2018-02-21T03:30:30.428Z,-0.70
2018-02-21T03:32:33.976Z,-0.70
2018-02-21T03:34:36.592Z,-0.60
2018-02-21T03:36:39.983Z,-0.70
2018-02-21T03:38:43.360Z,-0.80
2018-02-21T03:40:45.981Z,-0.80
2018-02-21T03:42:48.576Z,-0.80
2018-02-21T03:44:51.954Z,-0.70
2018-02-21T03:46:54.582Z,-0.80
2018-02-21T03:48:57.972Z,-0.80
2018-02-21T03:51:01.410Z,-0.80
2018-02-21T03:53:04.036Z,-0.80
2018-02-21T03:55:06.651Z,-0.80
2018-02-21T03:57:09.277Z,-0.80
2018-02-21T03:59:11.900Z,-0.80
2018-02-21T04:01:14.513Z,-0.80
2018-02-21T04:03:17.141Z,-0.80
2018-02-21T04:05:19.735Z,-0.90
2018-02-21T04:07:22.373Z,-0.90
2018-02-21T04:09:25.765Z,-1.00
2018-02-21T04:11:29.242Z,-1.00
2018-02-21T04:13:31.945Z,-1.10
2018-02-21T04:15:34.635Z,-1.00
2018-02-21T04:17:37.229Z,-1.00
2018-02-21T04:19:39.836Z,-1.00
2018-02-21T04:21:42.474Z,-1.00
2018-02-21T04:23:45.088Z,-1.10
2018-02-21T04:25:47.725Z,-1.20
2018-02-21T04:27:50.326Z,-1.10
2018-02-21T04:29:52.967Z,-1.00
2018-02-21T04:31:55.601Z,-1.00
2018-02-21T04:33:59.013Z,-1.00
2018-02-21T04:36:01.621Z,-1.00
2018-02-21T04:38:04.243Z,-1.10
2018-02-21T04:40:06.839Z,-1.10
2018-02-21T04:42:09.463Z,-1.00
2018-02-21T04:44:12.052Z,-1.00
2018-02-21T04:46:14.645Z,-1.00
2018-02-21T04:48:18.113Z,-1.00
2018-02-21T04:50:20.766Z,-1.00
2018-02-21T04:52:23.364Z,-1.00
2018-02-21T04:54:31.620Z,-1.10
2018-02-21T04:59:28.405Z,-1.00
2018-02-21T05:01:31.002Z,-1.10
2018-02-21T05:03:33.612Z,-1.10
2018-02-21T05:05:36.996Z,-1.10
2018-02-21T05:07:40.400Z,-1.10
2018-02-21T05:09:43.803Z,-1.10
2018-02-21T05:11:46.427Z,-1.10
2018-02-21T05:13:49.238Z,-1.10
2018-02-21T05:15:52.637Z,-1.10
2018-02-21T05:17:56.022Z,-1.10
2018-02-21T05:19:59.421Z,-1.00
2018-02-21T05:22:02.835Z,-1.10
2018-02-21T05:24:05.966Z,-1.10
2018-02-21T05:26:08.571Z,-1.10
2018-02-21T05:28:11.965Z,-1.10
2018-02-21T05:30:15.337Z,-1.00
2018-02-21T05:32:17.970Z,-1.00
2018-02-21T05:34:20.572Z,-0.90
2018-02-21T05:36:23.212Z,-1.00
2018-02-21T05:38:25.964Z,-1.00
2018-02-21T05:40:29.343Z,-1.10
2018-02-21T05:42:32.721Z,-1.10
2018-02-21T05:44:35.339Z,-1.10
2018-02-21T05:46:37.965Z,-1.00
2018-02-21T05:48:40.586Z,-1.00
2018-02-21T05:50:43.275Z,-1.00
2018-02-21T05:52:45.942Z,-0.90
2018-02-21T05:54:48.549Z,-0.80
2018-02-21T05:56:51.197Z,-0.80
2018-02-21T05:58:53.789Z,-0.80
2018-02-21T06:00:56.394Z,-0.80
2018-02-21T06:02:59.021Z,-0.80
2018-02-21T06:05:01.652Z,-0.80
2018-02-21T06:07:04.263Z,-0.90
2018-02-21T06:09:06.944Z,-0.90
2018-02-21T06:11:09.569Z,-0.80
2018-02-21T06:13:12.316Z,-0.80
2018-02-21T06:15:14.924Z,-0.90
2018-02-21T06:17:17.643Z,-1.00
2018-02-21T06:19:20.245Z,-1.00
2018-02-21T06:21:22.935Z,-1.00
2018-02-21T06:23:25.558Z,-1.00
2018-02-21T06:25:28.161Z,-0.90
2018-02-21T06:27:30.792Z,-1.00
2018-02-21T06:29:34.309Z,-0.90
2018-02-21T06:31:36.926Z,-0.90
2018-02-21T06:33:39.699Z,-0.90
2018-02-21T06:35:42.364Z,-0.80
2018-02-21T06:37:44.986Z,-0.90
2018-02-21T06:39:48.380Z,-1.00
2018-02-21T06:41:50.974Z,-1.00
2018-02-21T06:43:54.354Z,-0.90
2018-02-21T06:45:57.734Z,-0.90
2018-02-21T06:48:00.440Z,-0.90
2018-02-21T06:50:03.066Z,-0.90
2018-02-21T06:52:05.683Z,-1.00
2018-02-21T06:54:08.302Z,-1.00
2018-02-21T06:56:10.947Z,-1.10
2018-02-21T06:58:13.646Z,-1.10
2018-02-21T07:00:16.238Z,-1.20
2018-02-21T07:02:30.777Z,-1.20
2018-02-21T07:04:33.389Z,-1.20
2018-02-21T07:06:35.975Z,-1.10
2018-02-21T07:08:39.336Z,-1.00
2018-02-21T07:10:41.973Z,-1.00
2018-02-21T07:12:44.577Z,-0.90
2018-02-21T07:14:47.179Z,-0.80
2018-02-21T07:16:49.803Z,-0.80
2018-02-21T07:18:52.436Z,-0.80
2018-02-21T07:20:55.842Z,-0.80
2018-02-21T07:22:58.463Z,-0.80
2018-02-21T07:25:01.061Z,-0.90
2018-02-21T07:27:03.667Z,-0.90
2018-02-21T07:29:07.027Z,-0.90
2018-02-21T07:31:09.650Z,-0.90
2018-02-21T07:33:12.246Z,-0.90
2018-02-21T07:35:14.862Z,-0.90
2018-02-21T07:37:18.236Z,-0.90
2018-02-21T07:39:20.835Z,-0.90
2018-02-21T07:41:24.336Z,-0.90
2018-02-21T07:43:27.711Z,-0.80
2018-02-21T07:45:30.346Z,-0.80
2018-02-21T07:47:32.978Z,-0.80
2018-02-21T07:49:36.348Z,-0.80
2018-02-21T07:51:38.959Z,-0.80
2018-02-21T07:53:41.647Z,-0.80
2018-02-21T07:55:44.257Z,-0.80
2018-02-21T07:57:46.881Z,-0.80
2018-02-21T07:59:49.497Z,-0.70
2018-02-21T08:01:52.893Z,-0.50
2018-02-21T08:03:55.509Z,-0.50
2018-02-21T08:05:58.961Z,-0.30
2018-02-21T08:08:01.554Z,-0.40
2018-02-21T08:10:04.158Z,-0.40
2018-02-21T08:12:07.586Z,-0.50
2018-02-21T08:14:10.225Z,-0.50
2018-02-21T08:16:13.613Z,-0.60
2018-02-21T08:18:16.974Z,-0.50
2018-02-21T08:20:19.575Z,-0.50
2018-02-21T08:22:23.018Z,-0.40
2018-02-21T08:24:25.630Z,-0.40
2018-02-21T08:26:28.228Z,-0.50
2018-02-21T08:28:31.613Z,-0.30
2018-02-21T08:30:34.988Z,-0.30
2018-02-21T08:32:37.582Z,-0.30
2018-02-21T08:34:41.022Z,-0.30
2018-02-21T08:36:43.639Z,-0.30
2018-02-21T08:38:46.262Z,-0.30
2018-02-21T08:40:48.861Z,-0.20
2018-02-21T08:42:52.257Z,-0.20
2018-02-21T08:44:54.886Z,-0.20
2018-02-21T08:46:57.482Z,-0.20
2018-02-21T08:49:00.098Z,-0.30
2018-02-21T08:51:02.702Z,-0.40
2018-02-21T08:53:05.311Z,-0.50
2018-02-21T08:55:07.918Z,-0.50
2018-02-21T08:57:10.514Z,-0.50
2018-02-21T08:59:13.898Z,-0.60
2018-02-21T09:01:17.268Z,-0.80
2018-02-21T09:03:19.872Z,-0.80
2018-02-21T09:05:23.260Z,-0.90
2018-02-21T09:07:26.623Z,-0.90
2018-02-21T09:09:29.238Z,-0.90
2018-02-21T09:11:32.611Z,-0.90
2018-02-21T09:13:36.002Z,-0.90
2018-02-21T09:15:38.636Z,-0.90
2018-02-21T09:17:41.231Z,-0.80
2018-02-21T09:19:43.842Z,-0.70
2018-02-21T09:21:47.235Z,-0.80
2018-02-21T09:23:50.610Z,-0.70
2018-02-21T09:25:54.007Z,-0.60
2018-02-21T09:27:57.426Z,-0.50
2018-02-21T09:30:00.048Z,-0.60
2018-02-21T09:32:02.697Z,-0.50
2018-02-21T09:34:05.298Z,-0.60
2018-02-21T09:36:07.892Z,-0.50
2018-02-21T09:38:10.504Z,-0.40
2018-02-21T09:40:13.142Z,-0.40
2018-02-21T09:42:15.739Z,-0.30
2018-02-21T09:44:19.120Z,-0.20
2018-02-21T09:46:22.497Z,-0.20
2018-02-21T09:48:25.106Z,-0.20
2018-02-21T09:50:27.765Z,-0.20
2018-02-21T09:52:31.134Z,-0.10
2018-02-21T09:54:33.793Z,-0.10
2018-02-21T09:56:36.403Z,0.00
2018-02-21T09:58:39.801Z,0.10
2018-02-21T10:00:43.193Z,0.10
2018-02-21T10:02:46.565Z,0.20
2018-02-21T10:04:49.172Z,0.20
2018-02-21T10:06:51.789Z,0.30
2018-02-21T10:08:55.151Z,0.50
2018-02-21T10:10:57.769Z,0.40
2018-02-21T10:13:01.146Z,0.60
2018-02-21T10:15:03.864Z,0.60
2018-02-21T10:17:06.460Z,0.60
2018-02-21T10:19:09.070Z,0.70
2018-02-21T10:21:11.665Z,0.90
2018-02-21T10:23:14.335Z,0.90
2018-02-21T10:25:16.961Z,1.00
2018-02-21T10:27:19.572Z,1.00
2018-02-21T10:29:22.230Z,1.00
2018-02-21T10:31:24.901Z,1.10
2018-02-21T10:33:27.521Z,1.10
2018-02-21T10:35:30.115Z,1.10
2018-02-21T10:37:33.474Z,1.10
2018-02-21T10:39:36.182Z,1.20
2018-02-21T10:41:39.541Z,1.20
2018-02-21T10:43:42.142Z,1.20
2018-02-21T10:45:45.510Z,1.10
2018-02-21T10:47:48.106Z,1.10
2018-02-21T10:49:50.710Z,1.00
2018-02-21T10:51:53.305Z,1.00
2018-02-21T10:53:55.972Z,0.80
2018-02-21T10:55:59.318Z,0.80
2018-02-21T10:58:01.912Z,0.80
2018-02-21T11:00:05.276Z,1.10
2018-02-21T11:02:07.902Z,1.00
2018-02-21T11:04:11.275Z,1.00
2018-02-21T11:06:14.622Z,1.10
2018-02-21T11:08:17.237Z,1.10
2018-02-21T11:10:20.607Z,1.10
2018-02-21T11:12:23.198Z,1.00
2018-02-21T11:14:26.594Z,1.10
2018-02-21T11:16:29.966Z,1.00
2018-02-21T11:18:32.561Z,1.00
2018-02-21T11:20:36.234Z,0.90
2018-02-21T11:22:38.819Z,0.90
2018-02-21T11:24:41.426Z,1.00
2018-02-21T11:26:44.061Z,0.90
2018-02-21T11:28:46.695Z,0.90
2018-02-21T11:30:49.285Z,1.00
2018-02-21T11:32:51.902Z,1.00
2018-02-21T11:34:55.265Z,1.00
2018-02-21T11:36:57.863Z,1.00
2018-02-21T11:39:00.471Z,0.90
2018-02-21T11:41:03.076Z,1.00
2018-02-21T11:43:05.793Z,1.00
2018-02-21T11:45:09.169Z,1.10
2018-02-21T11:47:11.968Z,1.10
2018-02-21T11:49:19.676Z,1.00
2018-02-21T11:51:22.265Z,1.00
2018-02-21T11:53:24.873Z,0.90
2018-02-21T11:55:27.474Z,0.90
2018-02-21T11:57:30.827Z,1.00
2018-02-21T11:59:33.531Z,1.00
2018-02-21T12:01:36.114Z,1.00
2018-02-21T12:03:39.157Z,0.90
2018-02-21T12:05:42.881Z,0.90
2018-02-21T12:07:48.601Z,0.90
2018-02-21T12:09:51.209Z,0.90
2018-02-21T12:11:53.848Z,0.90
2018-02-21T12:13:56.569Z,0.90
2018-02-21T12:16:00.316Z,0.90
2018-02-21T12:18:03.016Z,1.00
2018-02-21T12:20:05.851Z,1.00
2018-02-21T12:22:09.197Z,0.90
2018-02-21T12:24:11.811Z,0.80
2018-02-21T12:26:15.161Z,0.70
2018-02-21T12:28:17.767Z,0.60
2018-02-21T12:30:21.991Z,0.60
2018-02-21T12:35:02.160Z,0.60
2018-02-21T12:37:04.785Z,0.60
2018-02-21T12:41:43.819Z,0.90
2018-02-21T12:43:46.404Z,0.80
2018-02-21T12:45:49.009Z,1.00
2018-02-21T12:47:51.688Z,1.00
2018-02-21T12:49:54.411Z,1.00
2018-02-21T12:51:57.032Z,0.90
2018-02-21T12:53:59.624Z,0.80
2018-02-21T12:56:03.001Z,0.70
2018-02-21T12:58:05.615Z,0.70
2018-02-21T13:00:08.242Z,0.80
2018-02-21T13:02:10.963Z,0.80
2018-02-21T13:04:14.407Z,0.80
2018-02-21T13:06:17.008Z,0.70
2018-02-21T13:08:20.504Z,0.90
2018-02-21T13:10:23.097Z,0.80
2018-02-21T13:12:25.708Z,1.00
2018-02-21T13:14:28.312Z,1.10
2018-02-21T13:16:30.949Z,1.00
2018-02-21T13:18:33.551Z,1.00
2018-02-21T13:20:36.130Z,1.00
2018-02-21T13:22:39.181Z,1.00
2018-02-21T13:24:42.945Z,1.00
2018-02-21T13:26:46.343Z,0.90
2018-02-21T13:28:49.331Z,0.90
2018-02-21T13:30:51.933Z,0.90
2018-02-21T13:32:54.838Z,0.70
2018-02-21T13:34:57.490Z,0.70
2018-02-21T13:37:00.092Z,0.70
2018-02-21T13:39:02.946Z,0.70
2018-02-21T13:41:05.543Z,0.70
2018-02-21T13:43:09.653Z,0.60
2018-02-21T13:45:12.261Z,0.60
2018-02-21T13:47:15.604Z,0.70
2018-02-21T13:49:18.259Z,0.70
2018-02-21T13:51:20.898Z,0.70
2018-02-21T13:53:23.908Z,0.70
2018-02-21T13:55:26.501Z,0.70
2018-02-21T13:57:32.519Z,0.90
2018-02-21T13:59:35.142Z,0.90
2018-02-21T14:01:42.095Z,0.90
2018-02-21T14:03:44.757Z,0.90
2018-02-21T14:05:47.353Z,1.00
2018-02-21T14:07:49.934Z,1.00
2018-02-21T14:09:52.551Z,1.00
2018-02-21T14:11:55.158Z,1.10
2018-02-21T14:13:57.791Z,1.10
2018-02-21T14:16:00.380Z,1.20
2018-02-21T14:18:05.657Z,1.10
2018-02-21T14:20:08.247Z,1.10
2018-02-21T14:22:10.854Z,1.10
2018-02-21T14:24:13.446Z,1.10
2018-02-21T14:26:16.822Z,1.20
2018-02-21T14:28:19.728Z,1.10
2018-02-21T14:30:22.341Z,1.20
2018-02-21T14:32:24.949Z,1.10
2018-02-21T14:34:27.625Z,1.10
2018-02-21T14:36:30.246Z,1.10
2018-02-21T14:38:32.834Z,1.10
2018-02-21T14:40:35.422Z,1.10
2018-02-21T14:42:38.045Z,1.00
2018-02-21T14:44:41.410Z,1.00
2018-02-21T14:46:44.046Z,1.00
2018-02-21T14:48:46.631Z,1.00
2018-02-21T14:50:49.213Z,1.00
2018-02-21T14:52:51.870Z,0.90
2018-02-21T14:54:54.463Z,0.90
2018-02-21T14:56:57.089Z,0.90
2018-02-21T14:58:59.669Z,1.00
2018-02-21T15:01:02.257Z,1.00
2018-02-21T15:03:04.887Z,1.00
2018-02-21T15:05:07.466Z,1.00
2018-02-21T15:07:10.834Z,1.10
2018-02-21T15:09:13.437Z,1.10
2018-02-21T15:11:16.870Z,1.20
2018-02-21T15:13:19.472Z,1.10
2018-02-21T15:15:22.057Z,1.10
2018-02-21T15:17:24.641Z,1.10
2018-02-21T15:19:27.257Z,1.00
2018-02-21T15:21:29.837Z,1.10
2018-02-21T15:23:32.522Z,1.10
2018-02-21T15:25:35.151Z,1.00
2018-02-21T15:27:38.545Z,0.90
2018-02-21T15:29:42.030Z,0.90
2018-02-21T15:31:45.400Z,0.90
2018-02-21T15:33:48.014Z,0.90
2018-02-21T15:35:51.376Z,1.00
2018-02-21T15:37:54.023Z,1.00
2018-02-21T15:39:56.645Z,1.00
2018-02-21T15:42:00.047Z,1.00
2018-02-21T15:44:03.449Z,1.00
2018-02-21T15:46:06.085Z,1.00
2018-02-21T15:48:08.755Z,1.10
2018-02-21T15:50:11.512Z,1.10
2018-02-21T15:52:14.102Z,1.20
2018-02-21T15:54:16.772Z,1.20
2018-02-21T15:56:19.314Z,1.20
2018-02-21T15:58:21.908Z,1.20
2018-02-21T16:00:24.531Z,1.20
2018-02-21T16:02:27.958Z,1.20
2018-02-21T16:04:30.574Z,1.20
2018-02-21T16:06:33.177Z,1.10
2018-02-21T16:08:36.532Z,1.10
2018-02-21T16:10:39.166Z,1.10
2018-02-21T16:12:41.761Z,1.10
2018-02-21T16:14:44.363Z,1.00
2018-02-21T16:16:47.773Z,0.90
2018-02-21T16:18:50.392Z,0.90
2018-02-21T16:20:53.013Z,0.90
2018-02-21T16:22:55.613Z,0.90
2018-02-21T16:24:59.021Z,1.00
2018-02-21T16:27:01.626Z,1.00
2018-02-21T16:29:04.218Z,1.00
2018-02-21T16:31:06.843Z,1.00
2018-02-21T16:33:09.422Z,1.00
2018-02-21T16:35:11.997Z,1.00
2018-02-21T16:37:14.621Z,1.00
2018-02-21T16:39:18.221Z,1.00
2018-02-21T16:43:20.609Z,1.00
2018-02-21T16:45:23.208Z,1.00
2018-02-21T16:47:26.668Z,0.90
2018-02-21T16:49:29.312Z,0.90
2018-02-21T16:51:31.875Z,0.80
2018-02-21T16:53:34.498Z,0.80
2018-02-21T16:55:37.076Z,0.80
2018-02-21T16:57:39.693Z,0.80
2018-02-21T16:59:43.060Z,0.80
2018-02-21T17:01:46.450Z,0.80
2018-02-21T17:03:49.841Z,0.80
2018-02-21T17:05:53.200Z,0.80
2018-02-21T17:07:55.836Z,0.80
2018-02-21T17:09:58.450Z,0.80
2018-02-21T17:12:01.051Z,0.80
2018-02-21T17:14:03.660Z,0.90
2018-02-21T17:16:06.262Z,0.90
2018-02-21T17:18:08.946Z,0.90
2018-02-21T17:20:12.301Z,0.90
2018-02-21T17:22:14.885Z,0.90
2018-02-21T17:24:17.516Z,0.90
2018-02-21T17:26:20.161Z,0.80
2018-02-21T17:28:22.748Z,0.80
2018-02-21T17:30:26.451Z,0.80
2018-02-21T17:32:29.049Z,0.80
2018-02-21T17:34:32.418Z,0.80
2018-02-21T17:36:35.026Z,0.90
2018-02-21T17:38:37.633Z,0.90
2018-02-21T17:40:45.949Z,0.90
2018-02-21T17:42:48.528Z,0.80
2018-02-21T17:44:51.147Z,0.80
2018-02-21T17:46:54.841Z,0.80
2018-02-21T17:48:58.247Z,0.80
2018-02-21T17:51:01.326Z,0.70
2018-02-21T17:53:07.898Z,0.70
2018-02-21T17:55:11.248Z,0.60
2018-02-21T17:57:13.898Z,0.60
2018-02-21T17:59:16.536Z,0.60
2018-02-21T18:01:19.196Z,0.60
2018-02-21T18:03:21.819Z,0.60
2018-02-21T18:05:24.426Z,0.60
2018-02-21T18:07:27.021Z,0.60
2018-02-21T18:09:29.645Z,0.60
2018-02-21T18:11:32.225Z,0.60
2018-02-21T18:13:34.848Z,0.60
2018-02-21T18:15:37.470Z,0.60
2018-02-21T18:17:40.102Z,0.60
2018-02-21T18:19:43.457Z,0.50
2018-02-21T18:21:49.807Z,0.50
2018-02-21T18:23:52.410Z,0.50
2018-02-21T18:25:55.023Z,0.50
2018-02-21T18:27:57.637Z,0.30
2018-02-21T18:30:00.239Z,0.30
2018-02-21T18:32:02.834Z,0.30
2018-02-21T18:34:06.225Z,0.20
2018-02-21T18:36:08.907Z,0.20
2018-02-21T18:38:11.485Z,0.20
2018-02-21T18:40:14.101Z,0.20
2018-02-21T18:42:16.766Z,0.20
2018-02-21T18:44:19.361Z,0.20
2018-02-21T18:46:21.960Z,0.20
2018-02-21T18:48:24.592Z,0.10
2018-02-21T18:50:27.206Z,-0.10
2018-02-21T18:52:29.825Z,-0.10
2018-02-21T18:54:32.525Z,-0.20
2018-02-21T18:56:35.125Z,-0.20
2018-02-21T18:58:37.773Z,-0.30
2018-02-21T19:00:40.386Z,-0.20
2018-02-21T19:02:42.985Z,-0.30
2018-02-21T19:04:45.636Z,-0.30
2018-02-21T19:06:49.055Z,-0.40
2018-02-21T19:08:51.723Z,-0.40
2018-02-21T19:10:54.358Z,-0.40
2018-02-21T19:12:56.972Z,-0.40
2018-02-21T19:15:00.419Z,-0.40
2018-02-21T19:17:03.036Z,-0.40
2018-02-21T19:19:07.942Z,-0.40
2018-02-21T19:21:10.555Z,-0.40
2018-02-21T19:23:13.194Z,-0.40
2018-02-21T19:25:15.809Z,-0.40
2018-02-21T19:27:18.432Z,-0.40
2018-02-21T19:29:21.056Z,-0.50
2018-02-21T19:31:23.726Z,-0.60
2018-02-21T19:33:26.327Z,-0.60
2018-02-21T19:35:28.945Z,-0.60
2018-02-21T19:37:31.580Z,-0.70
2018-02-21T19:39:34.213Z,-0.70
2018-02-21T19:41:37.560Z,-0.80
2018-02-21T19:43:40.163Z,-0.70
2018-02-21T19:45:43.646Z,-0.70
2018-02-21T19:47:46.256Z,-0.70
2018-02-21T19:49:48.880Z,-0.80
2018-02-21T19:51:51.505Z,-0.70
2018-02-21T19:53:54.132Z,-0.70
2018-02-21T19:55:56.756Z,-0.80
2018-02-21T19:58:00.102Z,-0.80
2018-02-21T20:00:02.704Z,-0.80
2018-02-21T20:02:06.134Z,-0.90
2018-02-21T20:04:08.734Z,-0.90
2018-02-21T20:06:11.370Z,-1.00
2018-02-21T20:08:13.969Z,-1.10
2018-02-21T20:10:16.579Z,-1.10
2018-02-21T20:12:19.377Z,-1.10
2018-02-21T20:14:21.990Z,-1.10
2018-02-21T20:16:24.623Z,-1.10
2018-02-21T20:18:28.015Z,-1.10
2018-02-21T20:20:30.613Z,-1.10
2018-02-21T20:22:33.251Z,-1.00
2018-02-21T20:24:35.845Z,-1.10
2018-02-21T20:26:39.196Z,-1.10
2018-02-21T20:28:41.809Z,-1.10
2018-02-21T20:30:45.281Z,-1.10
2018-02-21T20:32:47.893Z,-1.10
2018-02-21T20:34:50.510Z,-1.10
2018-02-21T20:36:53.164Z,-1.10
2018-02-21T20:38:55.850Z,-1.10
2018-02-21T20:40:58.489Z,-1.10
2018-02-21T20:43:01.924Z,-1.10
2018-02-21T20:45:04.897Z,-1.10
2018-02-21T20:47:07.596Z,-1.00
2018-02-21T20:49:10.312Z,-1.00
2018-02-21T20:51:13.694Z,-1.00
2018-02-21T20:53:16.310Z,-1.00
2018-02-21T20:55:18.950Z,-1.10
2018-02-21T20:57:22.338Z,-1.10
2018-02-21T20:59:24.933Z,-1.10
2018-02-21T21:01:28.318Z,-1.10
2018-02-21T21:03:31.707Z,-1.10
2018-02-21T21:05:35.083Z,-1.10
2018-02-21T21:07:37.686Z,-1.10
2018-02-21T21:09:40.302Z,-1.10
2018-02-21T21:11:42.905Z,-1.20
2018-02-21T21:13:45.522Z,-1.20
2018-02-21T21:15:48.153Z,-1.20
2018-02-21T21:17:50.738Z,-1.20
2018-02-21T21:19:54.122Z,-1.10
2018-02-21T21:21:56.921Z,-1.20
2018-02-21T21:24:00.306Z,-1.20
2018-02-21T21:26:03.664Z,-1.20
2018-02-21T21:28:06.341Z,-1.20
2018-02-21T21:30:08.940Z,-1.20
2018-02-21T21:32:11.842Z,-1.20
2018-02-21T21:34:14.460Z,-1.20
2018-02-21T21:36:17.095Z,-1.20
2018-02-21T21:38:19.693Z,-1.20
2018-02-21T21:40:22.405Z,-1.30
2018-02-21T21:42:25.009Z,-1.30
2018-02-21T21:44:28.421Z,-1.40
2018-02-21T21:46:31.051Z,-1.40
2018-02-21T21:48:33.641Z,-1.30
2018-02-21T21:50:37.107Z,-1.40
2018-02-21T21:52:40.474Z,-1.50
2018-02-21T21:54:43.073Z,-1.50
2018-02-21T21:56:45.781Z,-1.50
2018-02-21T21:58:49.149Z,-1.50
2018-02-21T22:00:51.792Z,-1.50
2018-02-21T22:02:54.394Z,-1.50
2018-02-21T22:04:57.000Z,-1.50
2018-02-21T22:07:00.398Z,-1.50
2018-02-21T22:09:03.752Z,-1.50
2018-02-21T22:11:06.357Z,-1.50
2018-02-21T22:13:09.765Z,-1.60
2018-02-21T22:15:12.382Z,-1.60
2018-02-21T22:17:15.014Z,-1.60
2018-02-21T22:19:18.389Z,-1.60
2018-02-21T22:21:20.994Z,-1.60
2018-02-21T22:23:23.602Z,-1.60
2018-02-21T22:25:26.207Z,-1.60
2018-02-21T22:27:29.597Z,-1.70
2018-02-21T22:29:32.187Z,-1.70
2018-02-21T22:31:34.821Z,-1.70
2018-02-21T22:33:37.449Z,-1.70
2018-02-21T22:35:40.050Z,-1.60
2018-02-21T22:37:42.637Z,-1.60
2018-02-21T22:39:45.245Z,-1.60
2018-02-21T22:41:47.954Z,-1.60
2018-02-21T22:43:50.554Z,-1.60
2018-02-21T22:45:53.189Z,-1.60
2018-02-21T22:47:56.571Z,-1.60
2018-02-21T22:49:59.974Z,-1.60
2018-02-21T22:52:03.362Z,-1.60
2018-02-21T22:54:06.722Z,-1.50
2018-02-21T22:56:10.115Z,-1.60
2018-02-21T22:58:12.717Z,-1.60
2018-02-21T23:00:16.167Z,-1.70
2018-02-21T23:02:18.793Z,-1.70
2018-02-21T23:04:22.171Z,-1.70
2018-02-21T23:06:24.800Z,-1.70
2018-02-21T23:08:28.225Z,-1.70
2018-02-21T23:10:30.856Z,-1.70
2018-02-21T23:12:33.450Z,-1.60
2018-02-21T23:14:36.056Z,-1.60
2018-02-21T23:16:38.673Z,-1.50
2018-02-21T23:18:41.267Z,-1.60
2018-02-21T23:20:43.860Z,-1.60
2018-02-21T23:22:46.513Z,-1.50
2018-02-21T23:24:49.089Z,-1.50
2018-02-21T23:26:51.701Z,-1.50
2018-02-21T23:28:54.311Z,-1.60
2018-02-21T23:30:56.933Z,-1.60
2018-02-21T23:32:59.529Z,-1.60
2018-02-21T23:35:02.154Z,-1.50
2018-02-21T23:37:04.777Z,-1.60
2018-02-21T23:39:07.366Z,-1.60
2018-02-21T23:41:10.780Z,-1.70
2018-02-21T23:43:13.401Z,-1.70
2018-02-21T23:45:16.000Z,-1.60
2018-02-21T23:47:19.379Z,-1.70
2018-02-21T23:49:21.978Z,-1.70
2018-02-21T23:51:25.339Z,-1.70
2018-02-21T23:53:27.953Z,-1.70
2018-02-21T23:55:31.329Z,-1.60
2018-02-21T23:57:34.705Z,-1.70
2018-02-21T23:59:37.571Z,-1.70
